Time;durP1;ratioP1;P1;durP2;ratioP2;P2;SDS_P1;SDS_P2;PMS_P1;PMS_P2;Temp;Humidity;BMP_temperature;BMP_pressure;BME280_temperature;BME280_humidity;BME280_pressure;Samples;Min_cycle;Max_cycle;Signal;HPM_P1;HPM_P2
2023/07/25 00:01:24;;;;;;;3.77;2.40;;;;;;;;;;5016652;28;20190;-50
2023/07/25 00:03:51;;;;;;;2.50;2.20;;;;;;;;;;5020808;28;20201;-51
2023/07/25 00:06:17;;;;;;;2.90;2.60;;;;;;;;;;5016557;28;20271;-51
2023/07/25 00:08:43;;;;;;;2.53;2.17;;;;;;;;;;5026412;28;20195;-51
2023/07/25 00:11:13;;;;;;;5.20;3.20;;;;;;;;;;5016818;28;20213;-51
2023/07/25 00:13:40;;;;;;;6.37;2.70;;;;;;;;;;5012157;28;20683;-51
2023/07/25 00:16:06;;;;;;;4.20;2.37;;;;;;;;;;5023894;28;20571;-50
2023/07/25 00:18:32;;;;;;;2.77;2.50;;;;;;;;;;5020274;28;20186;-50
2023/07/25 00:20:58;;;;;;;2.57;2.20;;;;;;;;;;5013070;28;20209;-49
2023/07/25 00:23:25;;;;;;;4.93;2.30;;;;;;;;;;5025029;28;20251;-49
2023/07/25 00:25:51;;;;;;;4.37;3.07;;;;;;;;;;5026790;28;20197;-49
2023/07/25 00:28:17;;;;;;;3.50;2.43;;;;;;;;;;5011410;28;20221;-49
2023/07/25 00:30:43;;;;;;;4.37;2.47;;;;;;;;;;5012970;28;20206;-48
2023/07/25 00:33:09;;;;;;;4.30;2.17;;;;;;;;;;5024602;28;21225;-48
2023/07/25 00:35:35;;;;;;;2.30;2.10;;;;;;;;;;5009912;28;20257;-47
2023/07/25 00:38:04;;;;;;;2.67;2.33;;;;;;;;;;5016609;28;20181;-48
2023/07/25 00:40:30;;;;;;;3.50;2.07;;;;;;;;;;5023044;28;20231;-48
2023/07/25 00:42:56;;;;;;;2.33;2.20;;;;;;;;;;5026774;28;20182;-47
2023/07/25 00:45:23;;;;;;;1.90;1.80;;;;;;;;;;5030482;28;20170;-48
2023/07/25 00:47:50;;;;;;;3.10;2.37;;;;;;;;;;5029788;28;20186;-47
2023/07/25 00:50:16;;;;;;;2.10;1.90;;;;;;;;;;5023820;28;20742;-48
2023/07/25 00:52:42;;;;;;;2.67;2.27;;;;;;;;;;5028091;28;20614;-48
2023/07/25 00:55:08;;;;;;;2.30;2.10;;;;;;;;;;5021785;28;20236;-47
2023/07/25 00:57:34;;;;;;;2.30;2.10;;;;;;;;;;5015722;28;20750;-48
2023/07/25 01:00:00;;;;;;;2.23;1.70;;;;;;;;;;5019435;28;20232;-48
2023/07/25 01:02:26;;;;;;;3.00;2.70;;;;;;;;;;5015763;28;20285;-48
2023/07/25 01:04:53;;;;;;;2.23;2.03;;;;;;;;;;5024292;28;20576;-49
2023/07/25 01:07:19;;;;;;;3.30;1.97;;;;;;;;;;5013941;28;20178;-47
2023/07/25 01:09:46;;;;;;;3.23;2.30;;;;;;;;;;5010276;28;20234;-48
2023/07/25 01:12:13;;;;;;;2.40;2.20;;;;;;;;;;5019358;28;20178;-49
2023/07/25 01:14:39;;;;;;;2.43;2.10;;;;;;;;;;5018328;28;20182;-47
2023/07/25 01:17:11;;;;;;;2.83;1.77;;;;;;;;;;5014465;28;20182;-48
2023/07/25 01:19:38;;;;;;;2.17;1.83;;;;;;;;;;5016270;28;20552;-49
2023/07/25 01:22:05;;;;;;;3.60;2.50;;;;;;;;;;5012505;28;20178;-49
2023/07/25 01:24:32;;;;;;;3.67;2.03;;;;;;;;;;5016318;28;20460;-49
2023/07/25 01:26:58;;;;;;;4.63;2.40;;;;;;;;;;5014919;28;20273;-48
2023/07/25 01:29:24;;;;;;;2.50;2.10;;;;;;;;;;5029584;28;20803;-48
2023/07/25 01:31:50;;;;;;;4.17;2.50;;;;;;;;;;5012991;28;20182;-49
2023/07/25 01:34:16;;;;;;;3.67;1.93;;;;;;;;;;5028125;28;20269;-49
2023/07/25 01:36:42;;;;;;;2.40;1.80;;;;;;;;;;5015743;28;20182;-49
2023/07/25 01:39:09;;;;;;;3.17;1.90;;;;;;;;;;5029843;28;20247;-48
2023/07/25 01:41:35;;;;;;;3.50;2.30;;;;;;;;;;5027444;28;20192;-47
2023/07/25 01:44:01;;;;;;;2.53;2.33;;;;;;;;;;5030058;28;20665;-49
2023/07/25 01:46:27;;;;;;;3.77;2.30;;;;;;;;;;5029271;28;20249;-48
2023/07/25 01:48:53;;;;;;;3.67;2.30;;;;;;;;;;5045792;28;20614;-49
2023/07/25 01:51:19;;;;;;;4.63;1.83;;;;;;;;;;5008714;28;20186;-49
2023/07/25 01:53:45;;;;;;;3.17;2.13;;;;;;;;;;5051016;28;20560;-49
2023/07/25 01:56:11;;;;;;;3.10;2.10;;;;;;;;;;5029324;28;20158;-49
2023/07/25 01:58:37;;;;;;;3.77;2.30;;;;;;;;;;5028486;28;20188;-49
2023/07/25 02:01:03;;;;;;;6.70;2.30;;;;;;;;;;5028324;28;20193;-49
2023/07/25 02:03:29;;;;;;;2.50;2.30;;;;;;;;;;5009893;28;20186;-49
2023/07/25 02:05:55;;;;;;;2.43;2.13;;;;;;;;;;5014344;28;20230;-49
2023/07/25 02:08:21;;;;;;;3.40;2.53;;;;;;;;;;5008860;28;20248;-49
2023/07/25 02:10:48;;;;;;;2.77;2.10;;;;;;;;;;5015989;28;20210;-48
2023/07/25 02:13:14;;;;;;;4.17;2.40;;;;;;;;;;5022806;28;20174;-48
2023/07/25 02:15:40;;;;;;;3.27;2.13;;;;;;;;;;5009604;28;20178;-48
2023/07/25 02:18:06;;;;;;;4.77;2.67;;;;;;;;;;5022177;28;20190;-49
2023/07/25 02:20:32;;;;;;;4.30;2.43;;;;;;;;;;5019074;28;20193;-49
2023/07/25 02:22:59;;;;;;;3.17;2.80;;;;;;;;;;5020252;28;20177;-49
2023/07/25 02:25:28;;;;;;;4.03;2.40;;;;;;;;;;5015866;28;20197;-49
2023/07/25 02:27:54;;;;;;;6.23;3.07;;;;;;;;;;5008688;28;20217;-49
2023/07/25 02:30:21;;;;;;;3.20;2.30;;;;;;;;;;5009634;28;20199;-49
2023/07/25 02:32:47;;;;;;;2.73;2.30;;;;;;;;;;5020972;28;20186;-49
2023/07/25 02:35:14;;;;;;;2.47;2.27;;;;;;;;;;5021482;28;20264;-48
2023/07/25 02:37:40;;;;;;;6.27;2.10;;;;;;;;;;5023137;28;20485;-49
2023/07/25 02:40:07;;;;;;;3.80;1.90;;;;;;;;;;5017460;28;20193;-49
2023/07/25 02:42:33;;;;;;;4.63;2.40;;;;;;;;;;5015981;28;20240;-48
2023/07/25 02:44:59;;;;;;;3.43;2.13;;;;;;;;;;5015558;28;20717;-48
2023/07/25 02:47:25;;;;;;;3.37;2.63;;;;;;;;;;5024904;28;20190;-49
2023/07/25 02:49:51;;;;;;;2.30;1.80;;;;;;;;;;5008339;28;20210;-49
2023/07/25 02:52:17;;;;;;;3.70;2.30;;;;;;;;;;5022740;28;20186;-49
2023/07/25 02:54:44;;;;;;;2.17;2.07;;;;;;;;;;5021531;28;20179;-49
2023/07/25 02:57:10;;;;;;;2.10;1.90;;;;;;;;;;5009059;28;20187;-49
2023/07/25 02:59:36;;;;;;;2.87;2.17;;;;;;;;;;5013319;28;20186;-49
2023/07/25 03:02:02;;;;;;;2.60;2.40;;;;;;;;;;5016843;28;20251;-48
2023/07/25 03:04:28;;;;;;;2.37;2.17;;;;;;;;;;5018096;28;20539;-49
2023/07/25 03:06:54;;;;;;;3.60;2.33;;;;;;;;;;5007615;28;20369;-48
2023/07/25 03:09:20;;;;;;;3.73;2.73;;;;;;;;;;5013117;28;20305;-48
2023/07/25 03:11:46;;;;;;;2.23;2.03;;;;;;;;;;5011720;28;20240;-48
2023/07/25 03:14:12;;;;;;;2.30;2.10;;;;;;;;;;5009663;28;20186;-48
2023/07/25 03:16:38;;;;;;;3.27;2.97;;;;;;;;;;5009347;28;20953;-47
2023/07/25 03:19:04;;;;;;;2.80;2.20;;;;;;;;;;5011825;28;20179;-48
2023/07/25 03:21:30;;;;;;;3.37;2.40;;;;;;;;;;5013200;28;20182;-47
2023/07/25 03:23:56;;;;;;;2.60;2.03;;;;;;;;;;5014951;28;20357;-48
2023/07/25 03:26:22;;;;;;;2.23;1.90;;;;;;;;;;5013179;28;20685;-47
2023/07/25 03:28:48;;;;;;;3.03;2.70;;;;;;;;;;5023590;28;20665;-48
2023/07/25 03:31:14;;;;;;;3.00;2.33;;;;;;;;;;5019931;28;20236;-48
2023/07/25 03:33:40;;;;;;;2.57;2.37;;;;;;;;;;5026513;28;20181;-48
2023/07/25 03:36:07;;;;;;;2.77;2.57;;;;;;;;;;5031451;28;20255;-47
2023/07/25 03:38:33;;;;;;;3.47;2.27;;;;;;;;;;5031514;28;20683;-47
2023/07/25 03:40:59;;;;;;;2.40;2.20;;;;;;;;;;5031025;28;20193;-47
2023/07/25 03:43:25;;;;;;;3.93;2.17;;;;;;;;;;5031782;28;20269;-47
2023/07/25 03:45:51;;;;;;;2.83;2.37;;;;;;;;;;5032204;28;20190;-48
2023/07/25 03:48:17;;;;;;;3.00;2.80;;;;;;;;;;5018613;28;20194;-47
2023/07/25 03:50:43;;;;;;;3.37;2.37;;;;;;;;;;5030321;28;20190;-48
2023/07/25 03:53:10;;;;;;;3.00;2.30;;;;;;;;;;5030254;28;20174;-47
2023/07/25 03:55:36;;;;;;;2.90;2.07;;;;;;;;;;5031332;28;20670;-48
2023/07/25 03:58:03;;;;;;;4.57;2.93;;;;;;;;;;5031037;28;20192;-48
2023/07/25 04:00:33;;;;;;;3.10;2.47;;;;;;;;;;5031518;28;20177;-48
2023/07/25 04:02:59;;;;;;;4.70;2.53;;;;;;;;;;5032470;28;20676;-47
2023/07/25 04:05:26;;;;;;;2.30;2.10;;;;;;;;;;5023883;28;20630;-48
2023/07/25 04:07:52;;;;;;;3.23;2.30;;;;;;;;;;5012418;28;20225;-49
2023/07/25 04:10:18;;;;;;;2.37;2.17;;;;;;;;;;5019113;28;20644;-49
2023/07/25 04:12:45;;;;;;;3.00;2.63;;;;;;;;;;5023033;28;20883;-48
2023/07/25 04:15:11;;;;;;;2.70;2.43;;;;;;;;;;5013366;28;20197;-48
2023/07/25 04:17:37;;;;;;;2.30;2.13;;;;;;;;;;5030676;28;20255;-48
2023/07/25 04:20:04;;;;;;;2.33;2.13;;;;;;;;;;5011624;28;20183;-49
2023/07/25 04:22:30;;;;;;;2.57;2.13;;;;;;;;;;5013427;28;20213;-48
2023/07/25 04:24:57;;;;;;;2.93;1.97;;;;;;;;;;5012625;28;20271;-49
2023/07/25 04:27:23;;;;;;;3.20;2.33;;;;;;;;;;5016384;28;20190;-48
2023/07/25 04:29:49;;;;;;;2.97;2.70;;;;;;;;;;5031318;28;20193;-48
2023/07/25 04:32:16;;;;;;;2.20;2.03;;;;;;;;;;5014758;28;20191;-48
2023/07/25 04:34:42;;;;;;;2.77;2.40;;;;;;;;;;5019874;28;20185;-49
2023/07/25 04:37:08;;;;;;;5.27;2.67;;;;;;;;;;5018360;28;20273;-49
2023/07/25 04:39:34;;;;;;;3.73;2.30;;;;;;;;;;5009482;28;20248;-48
2023/07/25 04:42:01;;;;;;;4.23;2.67;;;;;;;;;;5015411;28;20190;-48
2023/07/25 04:44:27;;;;;;;3.07;2.27;;;;;;;;;;5023200;28;20272;-49
2023/07/25 04:46:53;;;;;;;3.23;2.20;;;;;;;;;;5019085;28;20189;-49
2023/07/25 04:49:19;;;;;;;4.67;2.10;;;;;;;;;;5021523;28;20293;-49
2023/07/25 04:51:46;;;;;;;3.60;2.23;;;;;;;;;;5028180;28;20193;-48
2023/07/25 04:54:12;;;;;;;2.87;2.23;;;;;;;;;;5013717;28;20245;-49
2023/07/25 04:56:41;;;;;;;2.27;2.13;;;;;;;;;;5019205;28;20599;-48
2023/07/25 04:59:07;;;;;;;2.93;2.10;;;;;;;;;;5017021;28;20185;-50
2023/07/25 05:01:34;;;;;;;2.20;2.00;;;;;;;;;;5020228;28;20275;-49
2023/07/25 05:04:00;;;;;;;3.90;2.70;;;;;;;;;;5014546;28;20241;-49
2023/07/25 05:06:28;;;;;;;3.30;2.30;;;;;;;;;;5026198;28;20225;-50
2023/07/25 05:08:56;;;;;;;3.77;2.40;;;;;;;;;;5024145;28;20276;-49
2023/07/25 05:11:23;;;;;;;2.30;2.10;;;;;;;;;;5019153;28;20233;-49
2023/07/25 05:13:50;;;;;;;2.43;2.20;;;;;;;;;;5028520;28;20202;-52
2023/07/25 05:16:18;;;;;;;3.30;2.03;;;;;;;;;;5012200;28;20181;-50
2023/07/25 05:18:45;;;;;;;4.60;2.83;;;;;;;;;;5020969;28;20178;-50
2023/07/25 05:21:14;;;;;;;2.73;2.53;;;;;;;;;;5017656;28;20574;-50
2023/07/25 05:23:40;;;;;;;2.60;2.37;;;;;;;;;;5016916;28;20628;-49
2023/07/25 05:26:06;;;;;;;2.60;2.20;;;;;;;;;;5017892;28;20277;-50
2023/07/25 05:28:32;;;;;;;2.90;2.60;;;;;;;;;;5016430;28;20198;-50
2023/07/25 05:30:59;;;;;;;2.73;2.20;;;;;;;;;;5011120;28;20257;-50
2023/07/25 05:33:25;;;;;;;2.97;2.67;;;;;;;;;;5017561;28;20223;-50
2023/07/25 05:35:59;;;;;;;3.03;2.73;;;;;;;;;;5017647;28;20189;-50
2023/07/25 05:38:25;;;;;;;2.90;2.40;;;;;;;;;;5021691;28;20185;-50
2023/07/25 05:40:53;;;;;;;3.30;2.37;;;;;;;;;;5017704;28;20595;-50
2023/07/25 05:43:19;;;;;;;2.83;2.40;;;;;;;;;;5017420;28;20520;-48
2023/07/25 05:45:46;;;;;;;3.73;3.20;;;;;;;;;;5017767;28;20186;-49
2023/07/25 05:48:12;;;;;;;3.10;2.40;;;;;;;;;;5013380;28;20610;-49
2023/07/25 05:50:38;;;;;;;5.43;2.30;;;;;;;;;;5014562;28;20210;-49
2023/07/25 05:53:04;;;;;;;4.83;2.80;;;;;;;;;;5009366;28;20283;-49
2023/07/25 05:55:31;;;;;;;4.07;2.70;;;;;;;;;;5013795;28;20687;-49
2023/07/25 05:57:57;;;;;;;6.03;2.70;;;;;;;;;;5022086;28;20512;-49
2023/07/25 06:00:23;;;;;;;4.20;2.70;;;;;;;;;;5025809;28;20277;-50
2023/07/25 06:02:50;;;;;;;2.93;2.50;;;;;;;;;;5008548;28;20614;-49
2023/07/25 06:05:16;;;;;;;4.20;2.90;;;;;;;;;;5021032;28;20233;-49
2023/07/25 06:07:43;;;;;;;5.37;2.80;;;;;;;;;;5029083;28;20181;-48
2023/07/25 06:10:09;;;;;;;5.50;3.07;;;;;;;;;;5028974;28;20190;-48
2023/07/25 06:12:35;;;;;;;3.90;3.17;;;;;;;;;;5026601;28;20190;-49
2023/07/25 06:15:02;;;;;;;3.13;2.30;;;;;;;;;;5009467;28;20166;-48
2023/07/25 06:17:28;;;;;;;7.67;3.17;;;;;;;;;;5009447;28;20185;-49
2023/07/25 06:19:54;;;;;;;2.43;2.23;;;;;;;;;;5008654;28;20182;-48
2023/07/25 06:22:20;;;;;;;3.40;2.30;;;;;;;;;;5009205;28;20167;-49
2023/07/25 06:24:47;;;;;;;5.57;2.60;;;;;;;;;;5009333;28;20193;-49
2023/07/25 06:27:13;;;;;;;4.23;2.40;;;;;;;;;;5009196;28;20175;-49
2023/07/25 06:29:39;;;;;;;4.37;2.47;;;;;;;;;;5011430;28;20620;-49
2023/07/25 06:32:05;;;;;;;2.70;2.37;;;;;;;;;;5028808;28;20634;-54
2023/07/25 06:34:32;;;;;;;3.07;2.70;;;;;;;;;;5027520;28;20174;-49
2023/07/25 06:36:58;;;;;;;3.40;2.23;;;;;;;;;;5027484;28;20183;-49
2023/07/25 06:39:24;;;;;;;3.90;2.30;;;;;;;;;;5029225;28;20594;-50
2023/07/25 06:41:51;;;;;;;4.33;2.67;;;;;;;;;;5026990;28;20181;-49
2023/07/25 06:44:19;;;;;;;2.77;2.30;;;;;;;;;;5018511;28;20178;-49
2023/07/25 06:46:46;;;;;;;4.00;2.40;;;;;;;;;;5020215;28;20193;-49
2023/07/25 06:49:12;;;;;;;2.70;2.13;;;;;;;;;;5022435;28;20574;-49
2023/07/25 06:51:38;;;;;;;4.10;2.40;;;;;;;;;;5024786;28;20611;-49
2023/07/25 06:54:04;;;;;;;3.73;2.60;;;;;;;;;;5017662;28;20583;-50
2023/07/25 06:56:30;;;;;;;3.60;2.37;;;;;;;;;;5025031;28;20673;-50
2023/07/25 06:58:56;;;;;;;2.40;2.20;;;;;;;;;;5023888;28;20182;-49
2023/07/25 07:01:27;;;;;;;3.20;2.23;;;;;;;;;;5011982;28;20190;-50
2023/07/25 07:03:53;;;;;;;7.17;3.03;;;;;;;;;;5013088;28;20178;-50
2023/07/25 07:06:19;;;;;;;5.40;3.33;;;;;;;;;;5021004;28;20308;-50
2023/07/25 07:08:46;;;;;;;4.50;2.77;;;;;;;;;;5018821;28;20209;-50
2023/07/25 07:11:12;;;;;;;7.20;3.27;;;;;;;;;;5016927;28;20230;-49
2023/07/25 07:13:38;;;;;;;5.87;2.83;;;;;;;;;;5022124;28;20633;-51
2023/07/25 07:16:04;;;;;;;5.10;3.37;;;;;;;;;;5017113;28;20657;-50
2023/07/25 07:18:30;;;;;;;7.37;3.93;;;;;;;;;;5032606;28;20511;-51
2023/07/25 07:20:57;;;;;;;4.13;3.03;;;;;;;;;;5023370;28;20182;-51
2023/07/25 07:23:23;;;;;;;3.60;3.13;;;;;;;;;;5013527;28;20178;-50
2023/07/25 07:25:50;;;;;;;4.93;3.43;;;;;;;;;;5015913;28;20186;-50
2023/07/25 07:28:17;;;;;;;4.37;3.43;;;;;;;;;;5024423;28;20540;-50
2023/07/25 07:30:48;;;;;;;3.47;3.17;;;;;;;;;;5032554;28;20651;-50
2023/07/25 07:33:14;;;;;;;6.47;3.80;;;;;;;;;;5032851;28;20637;-50
2023/07/25 07:35:40;;;;;;;5.53;3.27;;;;;;;;;;5027085;28;20174;-50
2023/07/25 07:38:06;;;;;;;6.10;3.37;;;;;;;;;;5022609;28;20202;-49
2023/07/25 07:40:35;;;;;;;5.90;3.33;;;;;;;;;;5023179;28;20186;-50
2023/07/25 07:43:01;;;;;;;4.13;3.67;;;;;;;;;;5029282;28;20284;-51
2023/07/25 07:45:29;;;;;;;5.93;3.53;;;;;;;;;;5021727;28;20186;-50
2023/07/25 07:47:55;;;;;;;3.93;3.40;;;;;;;;;;5017236;28;20179;-51
2023/07/25 07:50:22;;;;;;;5.27;3.53;;;;;;;;;;5024181;28;20265;-50
2023/07/25 07:52:48;;;;;;;4.13;2.90;;;;;;;;;;5025365;28;20555;-50
2023/07/25 07:55:15;;;;;;;5.90;3.50;;;;;;;;;;5024058;28;20605;-51
2023/07/25 07:57:42;;;;;;;6.67;3.73;;;;;;;;;;5029162;28;20539;-51
2023/07/25 08:00:09;;;;;;;5.23;3.60;;;;;;;;;;5019393;28;20182;-51
2023/07/25 08:02:35;;;;;;;4.13;3.10;;;;;;;;;;5018799;28;20523;-50
2023/07/25 08:05:02;;;;;;;4.83;3.20;;;;;;;;;;5021336;28;20225;-51
2023/07/25 08:07:28;;;;;;;6.37;3.60;;;;;;;;;;5025615;28;20182;-50
2023/07/25 08:09:55;;;;;;;3.67;3.17;;;;;;;;;;5030653;28;20208;-50
2023/07/25 08:12:22;;;;;;;5.30;3.17;;;;;;;;;;5031564;28;20170;-50
2023/07/25 08:14:48;;;;;;;5.90;3.17;;;;;;;;;;5028717;28;20197;-50
2023/07/25 08:17:14;;;;;;;8.10;3.50;;;;;;;;;;5031044;28;20202;-50
2023/07/25 08:19:40;;;;;;;4.17;2.80;;;;;;;;;;5030389;28;20204;-50
2023/07/25 08:22:07;;;;;;;7.17;3.37;;;;;;;;;;5021772;28;20209;-53
2023/07/25 08:24:33;;;;;;;4.60;3.00;;;;;;;;;;5027773;28;20189;-49
2023/07/25 08:27:02;;;;;;;5.47;3.23;;;;;;;;;;5020066;28;20284;-49
2023/07/25 08:29:28;;;;;;;4.87;3.33;;;;;;;;;;5027029;28;20259;-49
2023/07/25 08:31:55;;;;;;;3.83;2.90;;;;;;;;;;5024143;28;20322;-49
2023/07/25 08:34:24;;;;;;;5.60;3.93;;;;;;;;;;5017929;28;20315;-49
2023/07/25 08:36:50;;;;;;;6.27;2.77;;;;;;;;;;5018405;28;20525;-49
2023/07/25 08:39:16;;;;;;;4.13;3.07;;;;;;;;;;5020445;28;20178;-49
2023/07/25 08:41:47;;;;;;;7.07;3.87;;;;;;;;;;5014372;28;20181;-49
2023/07/25 08:44:15;;;;;;;5.43;3.53;;;;;;;;;;5029491;28;20200;-49
2023/07/25 08:46:42;;;;;;;6.03;3.10;;;;;;;;;;5030517;28;20637;-48
2023/07/25 08:49:11;;;;;;;4.13;2.70;;;;;;;;;;5025181;28;20179;-48
2023/07/25 08:51:37;;;;;;;6.20;3.30;;;;;;;;;;5014324;28;20670;-52
2023/07/25 08:54:03;;;;;;;3.90;3.43;;;;;;;;;;5022992;28;20185;-48
2023/07/25 08:56:30;;;;;;;6.13;3.20;;;;;;;;;;5017978;28;20189;-56
2023/07/25 08:58:57;;;;;;;6.20;2.93;;;;;;;;;;5015598;28;20268;-48
2023/07/25 09:01:23;;;;;;;4.80;3.47;;;;;;;;;;5011843;28;20273;-49
2023/07/25 09:03:50;;;;;;;7.00;3.30;;;;;;;;;;5017386;28;20181;-49
2023/07/25 09:06:16;;;;;;;4.03;3.00;;;;;;;;;;5017770;28;20230;-49
2023/07/25 09:08:42;;;;;;;5.33;2.87;;;;;;;;;;5021914;28;20546;-49
2023/07/25 09:11:10;;;;;;;7.60;2.73;;;;;;;;;;5020759;28;20704;-48
2023/07/25 09:13:37;;;;;;;4.60;3.00;;;;;;;;;;5014746;28;20292;-49
2023/07/25 09:16:03;;;;;;;5.80;2.83;;;;;;;;;;5016397;28;20174;-49
2023/07/25 09:18:30;;;;;;;3.37;2.40;;;;;;;;;;5011667;28;20618;-49
2023/07/25 09:20:56;;;;;;;3.70;2.77;;;;;;;;;;5010414;28;20273;-49
2023/07/25 09:23:22;;;;;;;4.03;2.80;;;;;;;;;;5014759;28;20195;-49
2023/07/25 09:25:49;;;;;;;4.43;2.70;;;;;;;;;;5021798;28;20188;-49
2023/07/25 09:28:15;;;;;;;6.23;2.40;;;;;;;;;;5017918;28;20646;-49
2023/07/25 09:30:48;;;;;;;3.77;2.80;;;;;;;;;;5009984;28;20209;-50
2023/07/25 09:33:28;;;;;;;4.83;2.80;;;;;;;;;;5015421;28;20269;-49
2023/07/25 09:35:55;;;;;;;4.70;2.83;;;;;;;;;;5019986;28;20677;-49
2023/07/25 09:38:21;;;;;;;5.73;2.40;;;;;;;;;;5013572;28;20316;-49
2023/07/25 09:40:47;;;;;;;3.80;2.43;;;;;;;;;;5011754;28;20187;-50
2023/07/25 09:43:24;;;;;;;3.83;3.03;;;;;;;;;;5017532;28;20204;-49
2023/07/25 09:45:51;;;;;;;5.67;3.07;;;;;;;;;;5017053;28;20270;-50
2023/07/25 09:48:17;;;;;;;5.10;2.40;;;;;;;;;;5012791;28;20186;-50
2023/07/25 09:50:44;;;;;;;6.40;2.83;;;;;;;;;;5017506;28;20206;-49
2023/07/25 09:53:10;;;;;;;3.57;2.90;;;;;;;;;;5010378;28;20205;-49
2023/07/25 09:55:37;;;;;;;3.53;2.53;;;;;;;;;;5010097;28;20190;-50
2023/07/25 09:58:03;;;;;;;2.97;2.57;;;;;;;;;;5014401;28;20186;-50
2023/07/25 10:00:30;;;;;;;3.37;2.80;;;;;;;;;;5022306;28;20837;-50
2023/07/25 10:02:56;;;;;;;5.00;2.77;;;;;;;;;;5011682;28;20476;-50
2023/07/25 10:05:23;;;;;;;4.00;3.13;;;;;;;;;;5015468;28;20321;-50
2023/07/25 10:07:49;;;;;;;5.83;2.60;;;;;;;;;;5012735;28;20190;-51
2023/07/25 10:10:16;;;;;;;3.17;2.87;;;;;;;;;;5013857;28;20245;-50
2023/07/25 10:12:42;;;;;;;5.80;2.50;;;;;;;;;;5017682;28;20181;-51
2023/07/25 10:15:09;;;;;;;5.23;2.83;;;;;;;;;;5023757;28;20373;-51
2023/07/25 10:17:35;;;;;;;5.57;3.20;;;;;;;;;;5030953;28;20217;-50
2023/07/25 10:20:05;;;;;;;2.80;2.50;;;;;;;;;;5022907;28;20228;-50
2023/07/25 10:22:38;;;;;;;6.87;3.67;;;;;;;;;;5022963;28;20190;-49
2023/07/25 10:25:12;;;;;;;6.23;3.10;;;;;;;;;;5019482;28;20550;-50
2023/07/25 10:27:38;;;;;;;3.80;2.73;;;;;;;;;;5021758;28;20189;-50
2023/07/25 10:30:21;;;;;;;6.10;2.87;;;;;;;;;;5024168;28;20682;-49
2023/07/25 10:32:47;;;;;;;5.57;2.83;;;;;;;;;;5026390;28;20630;-50
2023/07/25 10:35:13;;;;;;;3.97;2.97;;;;;;;;;;5041759;28;20657;-50
2023/07/25 10:37:43;;;;;;;2.90;2.63;;;;;;;;;;5012885;28;20639;-50
2023/07/25 10:40:10;;;;;;;3.13;2.70;;;;;;;;;;5015761;28;20190;-50
2023/07/25 10:42:49;;;;;;;5.77;3.43;;;;;;;;;;5026932;28;20696;-51
2023/07/25 10:45:27;;;;;;;4.50;2.90;;;;;;;;;;5026068;28;20192;-51
2023/07/25 10:47:54;;;;;;;3.53;2.53;;;;;;;;;;5026655;28;20556;-51
2023/07/25 10:50:25;;;;;;;4.90;2.90;;;;;;;;;;5014937;28;20302;-51
2023/07/25 10:52:51;;;;;;;5.33;2.77;;;;;;;;;;5021582;28;20185;-50
2023/07/25 10:55:17;;;;;;;5.57;3.10;;;;;;;;;;5015989;28;20187;-51
2023/07/25 10:58:04;;;;;;;3.67;2.53;;;;;;;;;;5022852;28;20205;-50
2023/07/25 11:00:36;;;;;;;4.13;2.47;;;;;;;;;;5021201;28;20248;-50
2023/07/25 11:03:21;;;;;;;3.97;2.63;;;;;;;;;;5019869;28;20209;-50
2023/07/25 11:05:47;;;;;;;3.30;2.90;;;;;;;;;;5007354;28;20626;-50
2023/07/25 11:08:14;;;;;;;3.83;3.00;;;;;;;;;;5016884;28;20228;-50
2023/07/25 11:10:41;;;;;;;4.87;3.07;;;;;;;;;;5024420;28;20210;-50
2023/07/25 11:13:08;;;;;;;4.13;2.70;;;;;;;;;;5014825;28;20287;-49
2023/07/25 11:15:35;;;;;;;6.30;2.70;;;;;;;;;;5008272;28;20182;-49
2023/07/25 11:18:06;;;;;;;3.57;2.23;;;;;;;;;;5019241;28;20496;-49
2023/07/25 11:20:32;;;;;;;3.43;2.33;;;;;;;;;;5015271;28;20193;-49
2023/07/25 11:22:59;;;;;;;6.53;2.40;;;;;;;;;;5011464;28;20660;-49
2023/07/25 11:25:25;;;;;;;2.87;2.40;;;;;;;;;;5016452;28;20251;-50
2023/07/25 11:27:51;;;;;;;2.97;2.40;;;;;;;;;;5023750;28;20599;-50
2023/07/25 11:30:19;;;;;;;3.90;2.67;;;;;;;;;;5009829;28;20302;-50
2023/07/25 11:32:52;;;;;;;6.67;2.67;;;;;;;;;;5015163;28;20178;-50
2023/07/25 11:35:18;;;;;;;3.30;2.37;;;;;;;;;;5024919;28;20185;-50
2023/07/25 11:37:45;;;;;;;4.23;2.00;;;;;;;;;;5011079;28;20258;-50
2023/07/25 11:40:19;;;;;;;7.03;2.50;;;;;;;;;;5028740;28;20520;-50
2023/07/25 11:42:49;;;;;;;6.93;2.57;;;;;;;;;;5014388;28;20208;-50
2023/07/25 11:45:16;;;;;;;5.23;2.97;;;;;;;;;;5008748;28;20186;-50
2023/07/25 11:47:43;;;;;;;6.03;3.73;;;;;;;;;;5015074;28;20189;-50
2023/07/25 11:50:11;;;;;;;3.50;2.53;;;;;;;;;;5010118;28;20717;-50
2023/07/25 11:52:38;;;;;;;7.30;2.80;;;;;;;;;;5019858;28;20570;-51
2023/07/25 11:55:05;;;;;;;8.97;3.03;;;;;;;;;;5022038;28;20190;-50
2023/07/25 11:57:31;;;;;;;4.00;3.37;;;;;;;;;;5016804;28;20621;-50
2023/07/25 11:59:59;;;;;;;4.80;2.63;;;;;;;;;;5025543;28;20645;-51
2023/07/25 12:02:26;;;;;;;5.73;2.70;;;;;;;;;;5027179;28;20470;-51
2023/07/25 12:04:52;;;;;;;5.23;2.27;;;;;;;;;;5017018;28;20233;-51
2023/07/25 12:07:18;;;;;;;4.10;2.80;;;;;;;;;;5015027;28;20187;-51
2023/07/25 12:09:51;;;;;;;3.03;2.37;;;;;;;;;;5023492;28;20275;-51
2023/07/25 12:12:18;;;;;;;4.17;2.50;;;;;;;;;;5028221;28;20256;-51
2023/07/25 12:15:02;;;;;;;2.47;2.00;;;;;;;;;;5012523;28;20712;-51
2023/07/25 12:17:41;;;;;;;5.80;2.30;;;;;;;;;;5027213;28;20178;-51
2023/07/25 12:20:17;;;;;;;3.03;2.30;;;;;;;;;;5028428;28;20186;-51
2023/07/25 12:22:44;;;;;;;3.27;2.00;;;;;;;;;;5016909;28;20193;-51
2023/07/25 12:25:11;;;;;;;4.13;2.67;;;;;;;;;;5021932;28;20203;-51
2023/07/25 12:27:44;;;;;;;4.47;2.23;;;;;;;;;;5017780;28;20562;-51
2023/07/25 12:30:10;;;;;;;3.83;2.20;;;;;;;;;;5010394;28;20504;-51
2023/07/25 12:32:37;;;;;;;2.10;1.70;;;;;;;;;;5014823;28;20316;-51
2023/07/25 12:35:03;;;;;;;3.43;1.80;;;;;;;;;;5032183;28;20177;-51
2023/07/25 12:37:29;;;;;;;3.07;1.70;;;;;;;;;;5028949;28;20248;-51
2023/07/25 12:39:55;;;;;;;2.60;1.97;;;;;;;;;;5023919;28;20188;-52
2023/07/25 12:42:21;;;;;;;2.40;2.20;;;;;;;;;;5016503;28;20183;-52
2023/07/25 12:44:47;;;;;;;2.60;1.83;;;;;;;;;;5018911;28;20205;-51
2023/07/25 12:47:13;;;;;;;2.30;1.80;;;;;;;;;;5031125;28;20188;-51
2023/07/25 12:49:39;;;;;;;2.33;1.93;;;;;;;;;;5030279;28;20212;-52
2023/07/25 12:52:06;;;;;;;2.40;1.93;;;;;;;;;;5023636;28;20193;-52
2023/07/25 12:54:36;;;;;;;1.93;1.57;;;;;;;;;;5020341;28;20182;-51
2023/07/25 12:57:02;;;;;;;4.30;2.00;;;;;;;;;;5010336;28;20166;-51
2023/07/25 12:59:28;;;;;;;3.97;2.23;;;;;;;;;;5011458;28;20896;-50
2023/07/25 13:01:55;;;;;;;3.10;1.93;;;;;;;;;;5021838;28;20640;-51
2023/07/25 13:04:21;;;;;;;2.13;1.77;;;;;;;;;;5009983;28;20609;-51
2023/07/25 13:06:47;;;;;;;5.13;2.23;;;;;;;;;;5012510;28;20222;-51
2023/07/25 13:09:13;;;;;;;2.60;1.60;;;;;;;;;;5026067;28;20182;-51
2023/07/25 13:11:39;;;;;;;1.50;1.40;;;;;;;;;;5019848;28;20217;-51
2023/07/25 13:14:06;;;;;;;3.77;1.87;;;;;;;;;;5020977;28;20194;-51
2023/07/25 13:16:32;;;;;;;1.70;1.60;;;;;;;;;;5009152;28;20296;-51
2023/07/25 13:18:58;;;;;;;4.60;2.00;;;;;;;;;;5024611;28;20221;-52
2023/07/25 13:21:24;;;;;;;2.17;1.63;;;;;;;;;;5011639;28;20243;-51
2023/07/25 13:23:50;;;;;;;1.93;1.73;;;;;;;;;;5014577;28;20190;-52
2023/07/25 13:26:16;;;;;;;2.40;1.80;;;;;;;;;;5017915;28;20211;-52
2023/07/25 13:28:42;;;;;;;2.17;1.60;;;;;;;;;;5017824;28;20254;-51
2023/07/25 13:31:08;;;;;;;2.10;1.60;;;;;;;;;;5028741;28;20666;-51
2023/07/25 13:33:34;;;;;;;2.47;1.77;;;;;;;;;;5012718;28;20244;-51
2023/07/25 13:36:00;;;;;;;1.50;1.40;;;;;;;;;;5026436;28;20178;-51
2023/07/25 13:38:27;;;;;;;2.57;1.73;;;;;;;;;;5017548;28;20178;-50
2023/07/25 13:40:53;;;;;;;1.80;1.60;;;;;;;;;;5009492;28;20248;-50
2023/07/25 13:43:19;;;;;;;2.80;1.90;;;;;;;;;;5020363;28;20177;-50
2023/07/25 13:45:45;;;;;;;3.93;1.77;;;;;;;;;;5020068;28;20190;-50
2023/07/25 13:48:11;;;;;;;1.80;1.70;;;;;;;;;;5025285;28;20566;-50
2023/07/25 13:50:38;;;;;;;2.53;1.90;;;;;;;;;;5024626;28;20264;-50
2023/07/25 13:53:04;;;;;;;2.03;1.87;;;;;;;;;;5020003;28;20196;-49
2023/07/25 13:55:30;;;;;;;2.00;1.43;;;;;;;;;;5023109;28;20175;-50
2023/07/25 13:57:56;;;;;;;1.83;1.67;;;;;;;;;;5021815;28;20181;-50
2023/07/25 14:00:22;;;;;;;2.60;1.70;;;;;;;;;;5017681;28;20502;-50
2023/07/25 14:02:48;;;;;;;3.13;1.80;;;;;;;;;;5024575;28;20190;-53
2023/07/25 14:05:14;;;;;;;2.27;1.90;;;;;;;;;;5024855;28;20233;-50
2023/07/25 14:07:41;;;;;;;1.90;1.73;;;;;;;;;;5022212;28;20221;-50
2023/07/25 14:10:07;;;;;;;1.57;1.40;;;;;;;;;;5019687;28;20206;-50
2023/07/25 14:12:33;;;;;;;2.20;1.33;;;;;;;;;;5020685;28;20178;-50
2023/07/25 14:14:59;;;;;;;1.90;1.40;;;;;;;;;;5024960;28;20235;-50
2023/07/25 14:17:26;;;;;;;2.47;1.63;;;;;;;;;;5008851;28;20210;-51
2023/07/25 14:19:52;;;;;;;1.50;1.40;;;;;;;;;;5014772;28;20187;-50
2023/07/25 14:22:18;;;;;;;2.40;1.53;;;;;;;;;;5021556;28;20668;-50
2023/07/25 14:24:44;;;;;;;2.80;1.80;;;;;;;;;;5019154;28;20181;-51
2023/07/25 14:27:11;;;;;;;2.30;1.40;;;;;;;;;;5017987;28;20271;-51
2023/07/25 14:29:38;;;;;;;1.53;1.43;;;;;;;;;;5027388;28;20196;-51
2023/07/25 14:32:04;;;;;;;2.03;1.63;;;;;;;;;;5008513;28;20183;-51
2023/07/25 14:34:30;;;;;;;3.70;1.63;;;;;;;;;;5014742;28;20177;-50
2023/07/25 14:36:56;;;;;;;2.60;1.50;;;;;;;;;;5019215;28;20190;-51
2023/07/25 14:39:23;;;;;;;2.03;1.63;;;;;;;;;;5014434;28;20276;-51
2023/07/25 14:41:49;;;;;;;1.70;1.60;;;;;;;;;;5015922;28;20192;-51